Flight Track Log - Related Links

Times and Time Zones

All times are in EDT time to prevent confusion due to time zone crossing. See the SWA601 flight status page for this flight to view local times or setup timezone preferences in your user account.

Time Position Orientation Groundspeed Altitude Reporting Facility
EDT Latitude Longitude Course Direction KTS MPH feet Rate Location/Type
Sat 10:28:44 AM 33.4333 -111.9833 90° East 168 193 1,900  Level Phoenix TRACON
Sat 10:29:38 AM 33.4333 -111.9333 90° East 205 236 3,700 2,474 Climbing Phoenix TRACON
Sat 10:30:38 AM 33.4333 -111.8500 90° East 251 289 6,600 2,510 Climbing Phoenix TRACON
Sat 10:31:16 AM 33.3939 -111.8419 170° South 259 298 7,800 2,303 Climbing Albuquerque Center
Sat 10:32:17 AM 33.3447 -111.9100 229° Southwest 282 325 10,400 2,508 Climbing Albuquerque Center
Sat 10:33:18 AM 33.2869 -112.0253 239° Southwest 346 398 12,900 2,683 Climbing Albuquerque Center
Sat 10:34:20 AM 33.2350 -112.1269 239° Southwest 356 410 15,900 2,585 Climbing Albuquerque Center
Sat 10:35:21 AM 33.1819 -112.2311 239° Southwest 366 421 18,200 2,410 Climbing Albuquerque Center
Sat 10:36:22 AM 33.1300 -112.3328 239° Southwest 373 429 20,800 2,195 Climbing Albuquerque Center
Sat 10:37:24 AM 33.0761 -112.4386 239° Southwest 375 432 22,700 1,805 Climbing Albuquerque Center
Sat 10:38:25 AM 33.0200 -112.5492 239° Southwest 389 448 24,500 1,805 Climbing Albuquerque Center
Sat 10:39:27 AM 32.9639 -112.6614 239° Southwest 394 453 26,400 1,854 Climbing Albuquerque Center
Sat 10:40:28 AM 32.9378 -112.8111 258° West 390 449 28,300 1,805 Climbing Albuquerque Center
Sat 10:41:30 AM 32.9219 -112.9383 262° West 391 450 30,100 1,805 Climbing Albuquerque Center
Sat 10:42:31 AM 32.9047 -113.0614 261° West 386 444 32,000 934 Climbing Albuquerque Center
Sat 10:43:32 AM 32.8875 -113.1819 260° West 377 434 32,000  Level Albuquerque Center
Sat 10:44:34 AM 32.8697 -113.3053 260° West 379 436 32,000  Level Albuquerque Center
Sat 10:45:35 AM 32.8531 -113.4303 261° West 383 441 32,000  Level Albuquerque Center
Sat 10:46:37 AM 32.8314 -113.5814 260° West 387 445 32,000  Level Albuquerque Center
Sat 10:47:38 AM 32.8136 -113.7078 261° West 389 448 32,000  Level Albuquerque Center
Sat 10:48:40 AM 32.7950 -113.8344 260° West 391 450 32,000  Level Albuquerque Center
Sat 10:49:41 AM 32.7783 -113.9597 261° West 387 445 32,000  Level Albuquerque Center
Sat 10:50:44 AM 32.7728 -114.0828 267° West 382 440 32,000  Level Los Angeles Center
Sat 10:51:46 AM 32.7742 -114.2086 271° West 381 438 32,000  Level Los Angeles Center
Sat 10:52:47 AM 32.7700 -114.3581 268° West 379 436 32,000  Level Los Angeles Center
Sat 10:53:48 AM 32.7683 -114.4850 269° West 382 440 32,000 -98 Level Los Angeles Center
Sat 10:54:50 AM 32.7669 -114.5858 269° West 381 438 31,800 -732 Descending Los Angeles Center
Sat 10:55:51 AM 32.7644 -114.7353 269° West 379 436 30,500 -1,122 Descending Los Angeles Center
Sat 10:56:53 AM 32.7617 -114.8542 268° West 367 422 29,500 -927 Descending Los Angeles Center
Sat 10:57:54 AM 32.7592 -114.9756 269° West 367 422 28,600 -885 Descending Los Angeles Center
Sat 10:58:55 AM 32.7572 -115.1044 269° West 384 442 27,700 -878 Descending Los Angeles Center
Sat 10:59:57 AM 32.7542 -115.2344 268° West 393 452 26,800 -1,073 Descending Los Angeles Center
Sat 11:00:58 AM 32.7581 -115.3911 272° West 396 456 25,500 -1,122 Descending Los Angeles Center
Sat 11:02:00 AM 32.7600 -115.5186 271° West 391 450 24,500 -976 Descending Los Angeles Center
Sat 11:03:01 AM 32.7614 -115.6436 271° West 384 442 23,500 -976 Descending Los Angeles Center
Sat 11:04:03 AM 32.7631 -115.7700 271° West 383 441 22,500 -1,561 Descending Los Angeles Center
Sat 11:05:04 AM 32.7650 -115.8967 271° West 383 441 20,300 -2,098 Descending Los Angeles Center
Sat 11:06:06 AM 32.7661 -116.0183 271° West 376 433 18,200 -2,098 Descending Los Angeles Center
Sat 11:07:07 AM 32.7675 -116.1344 271° West 361 415 16,000 -2,115 Descending Los Angeles Center
Sat 11:08:08 AM 32.7689 -116.2478 271° West 348 400 13,900 -2,049 Descending Los Angeles Center
Sat 11:09:10 AM 32.7697 -116.3594 271° West 339 390 11,800 -1,951 Descending Los Angeles Center
Sat 11:10:11 AM 32.7697 -116.4706 270° West 332 382 9,900 -1,463 Descending Los Angeles Center
Sat 11:11:13 AM 32.7503 -116.5622 256° West 291 335 8,800 -1,403 Descending Los Angeles Center
Sat 11:12:15 AM 32.6675 -116.6275 214° Southwest 297 342 7,000 -1,366 Descending Los Angeles Center
Sat 11:13:16 AM 32.6283 -116.7014 238° Southwest 277 319 6,000 -488 Descending Los Angeles Center
Sat 11:14:18 AM 32.6228 -116.7917 266° West 275 316 6,000 -48 Level Los Angeles Center
Sat 11:15:22 AM 32.6167 -116.9000 266° West 283 326 5,900  Descending Southern California TRACON
Sat 11:16:22 AM 32.6167 -116.9833 270° West 280 322 6,000 -100 Climbing Southern California TRACON
Sat 11:17:22 AM 32.6333 -117.0833 281° West 274 315 5,700 -550 Descending Southern California TRACON
Sat 11:18:22 AM 32.6500 -117.1500 287° West 255 293 4,900 -550 Descending Southern California TRACON
Sat 11:19:22 AM 32.6833 -117.2333 295° West 241 277 4,600 -550 Descending Southern California TRACON
Sat 11:20:22 AM 32.7000 -117.3000 287° West 229 264 3,800 -898 Descending Southern California TRACON
Sat 11:21:29 AM 32.7097 -117.3811 278° West 223 257 2,700 -844 Descending Los Angeles Center
Sat 11:22:30 AM 32.7606 -117.3867 355° North 213 245 2,000 -341 Descending Los Angeles Center
Sat 11:23:32 AM 32.7658 -117.3247 84° East 201 231 2,000 -341 Level Los Angeles Center
Sat 11:24:33 AM 32.7503 -117.2656 107° East 192 221 1,300 -780 Descending Los Angeles Center
Sat 11:25:35 AM 32.7400 -117.2206 105° East 153 176 400 4,210 Descending Los Angeles Center
Sat 11:26:37 AM 32.7306 -117.1736 103° East 138 159 10,000 9,290 Climbing Los Angeles Center

Login

Don't have an account? Register now (free) for customized features, flight alerts, and more!